Hlavní strana
METAR-TAF:

METAR-TAF

Letiště :

Pittsburgh International Airport

Pittsburgh, Pensylvánie, Spojené státy americké

zeměpisná šířka: 40-30-14N, zeměpisná délka: 080-15-59W, výška: 366 m

Aktuální stav počasí

Zpráva byla vytvořena před 29 minutami, v 15:51 UTC
Severoseverovýchodní vítr 11 kt s nárazy do 19 kt
Teplota 23°C
Vlhkost vzduchu 44%
Tlak 1019 hPa
Viditelnost: 16.1 km
Polojasno ve výšce 4200 ft

METAR: KPIT 181551Z 02011G19KT 10SM SCT042 23/10 A3009 RMK AO2 SLP189 T02330100

Čas: 12:20 (16:20 UTC)

Předpověď počasí

Zpráva byla vytvořena před 1 hodinou a 59 minutami, v 14:21 UTC
Předpověď platná od 18 v 14 UTC do 19 v 18 UTC
Severní vítr 9 kt
Viditelnost: 10 km
Polojasno ve výšce 2500 ft
Od 18 v 1900 UTC
Severní vítr 8 kt
Viditelnost: 10 km
Jasno

TAF: KPIT 181421Z 1814/1918 35009KT P6SM SCT025 FM181900 35008KT P6SM SKC

Stav a předpovědi počasí z více než 4 000 letišť (zprávy METAR a TAF).

Červené a žluté tečky na mapě představují dostupné meteorologické stanice.

Když kurzor umístíte na tečku, zobrazí se název stanice.

Pak kliknutím zobrazíte stav a předpověď počasí.

Chcete-li změnit mapu, kliknutím na zelené tlačítko se znaménkem +mapu přiblížíte, kliknutím na zelené tlačítko se znaménkem – mapu oddálíte a kliknutím na zelené šipky přejdete na sousední mapy.


METAR-TAF: